Copper Creek, Canada
Current Conditions -  °F | °C
As of 2:00 PM on Tuesday 25 Nov 2014 (Local Time) from CYKA Reporting Station
Overcast Overcast  
Wind Chill:   Ceiling: 1300
Heat Index:   Visibility: 40mi
Dew Point:   Wind: 2mph
Humidity: 87%   Direction: 90°E
Pressure: 30.25"   Gusts: NA
Location:  50.8°N, 120.76°W
Report Text: CYKA 252200Z 09002KT 40SM FEW009 BKN013 BKN070 OVC120 03/01 A3025 RMK SF2ST3AS2AC1 SLP258
Loading
Personal Weather Stations






























Interactive Weather Map New forecast layout! Learn more

10-Day Weather Forecast

Advertisements
Track Severe Weather on mobile